createdAt,value
2023-04-03T00:00:20.856Z,2.90
2023-04-03T00:01:16.020Z,3.10
2023-04-03T00:02:11.015Z,3.00
2023-04-03T00:03:06.039Z,2.70
2023-04-03T00:04:01.352Z,2.70
2023-04-03T00:04:59.072Z,2.40
2023-04-03T00:05:54.460Z,2.80
2023-04-03T00:06:49.167Z,2.80
2023-04-03T00:07:44.234Z,2.50
2023-04-03T00:08:39.289Z,2.60
2023-04-03T00:09:34.314Z,2.70
2023-04-03T00:10:29.351Z,2.60
2023-04-03T00:11:24.425Z,2.90
2023-04-03T00:12:19.505Z,2.70
2023-04-03T00:13:14.707Z,3.40
2023-04-03T00:14:09.714Z,2.40
2023-04-03T00:15:04.836Z,2.10
2023-04-03T00:15:59.994Z,2.90
2023-04-03T00:16:55.001Z,2.10
2023-04-03T00:17:50.018Z,2.90
2023-04-03T00:18:45.090Z,2.50
2023-04-03T00:19:40.108Z,2.40
2023-04-03T00:20:35.382Z,2.80
2023-04-03T00:21:32.091Z,2.60
2023-04-03T00:22:27.032Z,2.40
2023-04-03T00:23:22.040Z,3.00
2023-04-03T00:24:17.158Z,3.20
2023-04-03T00:25:12.278Z,2.70
2023-04-03T00:26:07.529Z,2.80
2023-04-03T00:27:02.341Z,2.60
2023-04-03T00:27:57.539Z,2.70
2023-04-03T00:28:52.525Z,3.00
2023-04-03T00:29:47.643Z,2.80
2023-04-03T00:30:42.760Z,2.80
2023-04-03T00:31:37.752Z,2.50
2023-04-03T00:32:32.842Z,3.00
2023-04-03T00:33:27.994Z,2.20
2023-04-03T00:34:22.931Z,2.50
2023-04-03T00:35:19.115Z,2.30
2023-04-03T00:36:14.520Z,2.20
2023-04-03T00:37:09.545Z,2.50
2023-04-03T00:38:05.016Z,2.40
2023-04-03T00:39:00.153Z,2.20
2023-04-03T00:39:55.353Z,2.50
2023-04-03T00:40:50.755Z,2.30
2023-04-03T00:41:45.887Z,2.60
2023-04-03T00:42:41.171Z,2.90
2023-04-03T00:43:36.377Z,2.70
2023-04-03T00:44:31.490Z,2.60
2023-04-03T00:45:26.679Z,2.30
2023-04-03T00:46:22.152Z,2.80
2023-04-03T00:47:16.977Z,2.30
2023-04-03T00:48:12.060Z,2.90
2023-04-03T00:49:07.151Z,2.40
2023-04-03T00:50:02.345Z,2.40
2023-04-03T00:50:57.363Z,2.70
2023-04-03T00:51:52.301Z,2.40
2023-04-03T00:52:47.401Z,2.60
2023-04-03T00:53:42.400Z,3.00
2023-04-03T00:54:37.492Z,3.00
2023-04-03T00:55:32.453Z,2.60
2023-04-03T00:56:27.796Z,2.60
2023-04-03T00:57:22.681Z,2.60
2023-04-03T00:58:17.688Z,2.40
2023-04-03T00:59:12.763Z,2.60
2023-04-03T01:00:07.783Z,2.70
2023-04-03T01:01:02.923Z,2.50
2023-04-03T01:01:58.137Z,2.40
2023-04-03T01:02:53.101Z,3.00
2023-04-03T01:03:48.145Z,2.60
2023-04-03T01:04:43.167Z,2.90
2023-04-03T01:05:40.475Z,2.30
2023-04-03T01:06:35.713Z,2.40
2023-04-03T01:07:30.749Z,2.70
2023-04-03T01:08:25.729Z,2.20
2023-04-03T01:09:20.749Z,2.20
2023-04-03T01:10:15.818Z,2.50
2023-04-03T01:11:11.008Z,2.40
2023-04-03T01:12:05.855Z,2.70
2023-04-03T01:13:00.986Z,3.20
2023-04-03T01:13:56.079Z,2.40
2023-04-03T01:14:51.100Z,2.50
2023-04-03T01:15:46.243Z,2.60
2023-04-03T01:16:41.818Z,2.60
2023-04-03T01:17:36.789Z,2.20
2023-04-03T01:18:32.041Z,2.60
2023-04-03T01:19:27.849Z,2.20
2023-04-03T01:20:23.095Z,2.50
2023-04-03T01:21:19.197Z,1.90
2023-04-03T01:22:14.166Z,2.00
2023-04-03T01:23:09.409Z,1.90
2023-04-03T01:24:05.225Z,2.50
2023-04-03T01:25:00.454Z,2.00
2023-04-03T01:25:55.830Z,2.20
2023-04-03T01:26:51.940Z,1.90
2023-04-03T01:27:47.191Z,2.20
2023-04-03T01:28:42.984Z,1.50
2023-04-03T01:29:38.212Z,2.00
2023-04-03T01:30:33.641Z,1.80
2023-04-03T01:31:29.511Z,2.10
2023-04-03T01:32:24.489Z,2.60
2023-04-03T01:33:20.326Z,1.90
2023-04-03T01:34:15.528Z,2.10
2023-04-03T01:35:10.925Z,2.00
2023-04-03T01:36:06.707Z,2.00
2023-04-03T01:37:01.850Z,2.10
2023-04-03T01:37:56.936Z,1.80
2023-04-03T01:38:53.416Z,1.40
2023-04-03T01:39:48.657Z,1.90
2023-04-03T01:40:44.483Z,2.00
2023-04-03T01:41:39.841Z,1.80
2023-04-03T01:42:34.867Z,1.90
2023-04-03T01:43:30.658Z,2.50
2023-04-03T01:44:25.949Z,2.00
2023-04-03T01:45:21.701Z,2.10
2023-04-03T01:46:17.106Z,1.70
2023-04-03T01:47:12.125Z,1.80
2023-04-03T01:48:07.943Z,1.60
2023-04-03T01:49:03.068Z,1.90
2023-04-03T01:49:58.299Z,2.10
2023-04-03T01:50:54.644Z,2.00
2023-04-03T01:51:50.033Z,1.60
2023-04-03T01:52:45.704Z,1.80
2023-04-03T01:53:40.957Z,1.70
2023-04-03T01:54:36.218Z,1.60
2023-04-03T01:55:31.341Z,1.60
2023-04-03T01:56:26.689Z,1.20
2023-04-03T01:57:22.623Z,1.80
2023-04-03T01:58:17.725Z,1.50
2023-04-03T01:59:12.955Z,2.10
2023-04-03T02:00:09.271Z,1.70
2023-04-03T02:01:04.540Z,1.70
2023-04-03T02:02:00.324Z,2.00
2023-04-03T02:02:55.623Z,1.70
2023-04-03T02:03:50.738Z,1.80
2023-04-03T02:04:46.597Z,1.70
2023-04-03T02:05:41.816Z,1.80
2023-04-03T02:06:37.762Z,1.80
2023-04-03T02:07:33.053Z,1.90
2023-04-03T02:08:28.287Z,1.80
2023-04-03T02:09:24.087Z,2.10
2023-04-03T02:10:19.348Z,1.80
2023-04-03T02:11:14.694Z,1.80
2023-04-03T02:12:09.831Z,1.60
2023-04-03T02:13:04.918Z,2.20
2023-04-03T02:13:59.919Z,1.90
2023-04-03T02:14:54.887Z,2.40
2023-04-03T02:15:53.941Z,1.70
2023-04-03T02:16:49.077Z,1.90
2023-04-03T02:17:44.395Z,2.00
2023-04-03T02:18:39.485Z,1.70
2023-04-03T02:19:34.600Z,2.40
2023-04-03T02:20:29.667Z,2.30
2023-04-03T02:21:24.804Z,2.30
2023-04-03T02:22:19.897Z,1.90
2023-04-03T02:23:14.949Z,2.20
2023-04-03T02:24:09.905Z,2.30
2023-04-03T02:25:05.049Z,2.20
2023-04-03T02:26:00.014Z,2.60
2023-04-03T02:26:55.281Z,2.30
2023-04-03T02:27:50.127Z,2.20
2023-04-03T02:28:45.249Z,1.80
2023-04-03T02:29:40.461Z,1.80
2023-04-03T02:30:35.723Z,1.50
2023-04-03T02:31:30.891Z,1.90
2023-04-03T02:32:26.024Z,1.90
2023-04-03T02:33:21.729Z,2.40
2023-04-03T02:34:16.126Z,2.20
2023-04-03T02:35:11.228Z,1.90
2023-04-03T02:36:06.333Z,1.90
2023-04-03T02:37:01.429Z,2.20
2023-04-03T02:37:56.403Z,2.20
2023-04-03T02:38:51.608Z,1.60
2023-04-03T02:39:46.750Z,2.10
2023-04-03T02:40:41.817Z,2.00
2023-04-03T02:41:36.918Z,2.00
2023-04-03T02:42:32.027Z,2.30
2023-04-03T02:43:27.152Z,1.70
2023-04-03T02:44:22.316Z,2.30
2023-04-03T02:45:17.305Z,2.10
2023-04-03T02:46:12.338Z,1.80
2023-04-03T02:47:07.542Z,2.10
2023-04-03T02:48:02.574Z,2.20
2023-04-03T02:48:57.509Z,2.00
2023-04-03T02:49:52.493Z,2.30
2023-04-03T02:50:47.581Z,2.60
2023-04-03T02:51:42.853Z,2.20
2023-04-03T02:52:38.156Z,2.50
2023-04-03T02:53:33.155Z,2.30
2023-04-03T02:54:28.396Z,2.30
2023-04-03T02:55:23.600Z,2.30
2023-04-03T02:56:19.532Z,2.50
2023-04-03T02:57:14.343Z,2.80
2023-04-03T02:58:09.882Z,2.10
2023-04-03T02:59:04.442Z,2.20
2023-04-03T02:59:59.839Z,2.50
2023-04-03T03:00:55.029Z,2.20
2023-04-03T03:01:50.343Z,2.00
2023-04-03T03:02:45.768Z,2.50
2023-04-03T03:03:40.730Z,2.50
2023-04-03T03:04:36.005Z,2.20
2023-04-03T03:05:31.197Z,2.40
2023-04-03T03:06:26.458Z,2.60
2023-04-03T03:07:21.719Z,2.70
2023-04-03T03:08:17.074Z,2.60
2023-04-03T03:09:12.188Z,2.60
2023-04-03T03:10:07.409Z,2.50
2023-04-03T03:11:02.688Z,2.30
2023-04-03T03:11:57.910Z,2.20
2023-04-03T03:12:53.318Z,2.60
2023-04-03T03:13:48.404Z,2.40
2023-04-03T03:14:43.625Z,2.10
2023-04-03T03:15:38.915Z,2.20
2023-04-03T03:16:34.115Z,2.20
2023-04-03T03:17:29.591Z,2.10
2023-04-03T03:18:27.004Z,2.40
2023-04-03T03:19:22.099Z,2.30
2023-04-03T03:20:17.354Z,1.70
2023-04-03T03:21:12.544Z,2.00
2023-04-03T03:22:07.929Z,2.40
2023-04-03T03:23:03.175Z,2.00
2023-04-03T03:23:58.167Z,2.10
2023-04-03T03:24:53.367Z,2.50
2023-04-03T03:25:48.644Z,1.70
2023-04-03T03:26:43.826Z,2.00
2023-04-03T03:27:38.893Z,2.20
2023-04-03T03:28:34.039Z,1.50
2023-04-03T03:29:29.002Z,2.20
2023-04-03T03:30:23.948Z,1.90
2023-04-03T03:31:19.080Z,1.60
2023-04-03T03:32:14.104Z,2.00
2023-04-03T03:33:09.341Z,1.80
2023-04-03T03:34:04.280Z,1.60
2023-04-03T03:34:59.540Z,1.60
2023-04-03T03:35:54.667Z,1.00
2023-04-03T03:36:49.735Z,1.40
2023-04-03T03:37:44.821Z,1.40
2023-04-03T03:38:40.138Z,1.50
2023-04-03T03:39:34.999Z,1.30
2023-04-03T03:40:30.129Z,1.00
2023-04-03T03:41:25.311Z,1.00
2023-04-03T03:42:20.472Z,1.30
2023-04-03T03:43:15.870Z,1.20
2023-04-03T03:44:10.730Z,1.40
2023-04-03T03:45:05.703Z,1.20
2023-04-03T03:46:00.816Z,1.60
2023-04-03T03:46:55.842Z,1.40
2023-04-03T03:47:51.053Z,1.20
2023-04-03T03:48:45.992Z,1.10
2023-04-03T03:49:42.557Z,1.20
2023-04-03T03:50:37.704Z,1.30
2023-04-03T03:51:32.700Z,1.20
2023-04-03T03:52:27.651Z,1.10
2023-04-03T03:53:22.969Z,1.30
2023-04-03T03:54:17.780Z,1.40
2023-04-03T03:55:12.898Z,1.30
2023-04-03T03:56:07.898Z,1.40
2023-04-03T03:57:03.064Z,1.90
2023-04-03T03:57:58.159Z,1.70
2023-04-03T03:58:53.035Z,1.30
2023-04-03T03:59:48.057Z,1.30
2023-04-03T04:00:43.441Z,1.40
2023-04-03T04:01:38.724Z,1.70
2023-04-03T04:02:34.102Z,1.10
2023-04-03T04:03:29.725Z,1.00
2023-04-03T04:04:24.873Z,1.10
2023-04-03T04:05:20.652Z,1.30
2023-04-03T04:06:15.906Z,1.40
2023-04-03T04:07:11.163Z,1.20
2023-04-03T04:08:07.003Z,1.30
2023-04-03T04:09:02.130Z,1.30
2023-04-03T04:09:57.382Z,1.50
2023-04-03T04:10:53.725Z,1.50
2023-04-03T04:11:49.142Z,1.30
2023-04-03T04:12:44.821Z,1.40
2023-04-03T04:13:40.118Z,1.20
2023-04-03T04:14:35.202Z,1.20
2023-04-03T04:15:31.053Z,1.40
2023-04-03T04:16:26.382Z,1.40
2023-04-03T04:17:22.369Z,1.60
2023-04-03T04:18:17.392Z,1.50
2023-04-03T04:19:12.535Z,1.50
2023-04-03T04:20:08.472Z,1.20
2023-04-03T04:21:03.739Z,1.50
2023-04-03T04:21:59.081Z,1.20
2023-04-03T04:22:55.226Z,1.50
2023-04-03T04:23:50.318Z,1.70
2023-04-03T04:24:46.208Z,1.00
2023-04-03T04:25:41.411Z,1.30
2023-04-03T04:26:36.801Z,1.60
2023-04-03T04:27:32.497Z,1.60
2023-04-03T04:28:27.779Z,1.30
2023-04-03T04:29:23.590Z,1.30
2023-04-03T04:30:18.810Z,1.50
2023-04-03T04:31:14.227Z,1.20
2023-04-03T04:32:10.005Z,1.50
2023-04-03T04:33:05.103Z,1.30
2023-04-03T04:34:00.355Z,1.20
2023-04-03T04:34:56.574Z,1.50
2023-04-03T04:35:51.942Z,1.40
2023-04-03T04:36:47.846Z,1.30
2023-04-03T04:37:43.301Z,1.50
2023-04-03T04:38:38.418Z,2.20
2023-04-03T04:39:34.184Z,1.70
2023-04-03T04:40:29.351Z,1.40
2023-04-03T04:41:25.220Z,1.90
2023-04-03T04:42:20.570Z,1.20
2023-04-03T04:43:15.765Z,1.50
2023-04-03T04:44:11.478Z,1.30
2023-04-03T04:45:06.767Z,1.50
2023-04-03T04:46:02.076Z,2.10
2023-04-03T04:46:57.146Z,1.50
2023-04-03T04:47:53.018Z,1.20
2023-04-03T04:48:48.190Z,1.70
2023-04-03T04:49:43.581Z,1.80
2023-04-03T04:50:39.250Z,1.40
2023-04-03T04:51:40.954Z,1.80
2023-04-03T04:52:31.503Z,1.50
2023-04-03T04:53:25.577Z,1.80
2023-04-03T04:54:21.008Z,2.00
2023-04-03T04:55:17.492Z,2.20
2023-04-03T04:56:12.855Z,2.00
2023-04-03T04:57:08.306Z,1.90
2023-04-03T04:58:04.303Z,1.40
2023-04-03T04:58:59.717Z,1.30
2023-04-03T04:59:55.473Z,1.50
2023-04-03T05:00:50.847Z,1.30
2023-04-03T05:01:46.068Z,1.50
2023-04-03T05:02:41.957Z,1.30
2023-04-03T05:03:37.216Z,1.50
2023-04-03T05:04:32.697Z,1.70
2023-04-03T05:05:27.912Z,1.90
2023-04-03T05:06:23.464Z,1.50
2023-04-03T05:07:18.545Z,1.60
2023-04-03T05:08:14.029Z,1.40
2023-04-03T05:09:10.056Z,1.40
2023-04-03T05:10:05.428Z,1.20
2023-04-03T05:11:00.933Z,1.70
2023-04-03T05:11:56.797Z,1.50
2023-04-03T05:12:51.955Z,1.80
2023-04-03T05:13:47.281Z,1.60
2023-04-03T05:14:42.777Z,1.50
2023-04-03T05:15:37.966Z,1.50
2023-04-03T05:16:32.953Z,1.70
2023-04-03T05:17:28.022Z,2.00
2023-04-03T05:18:23.159Z,1.70
2023-04-03T05:19:18.195Z,1.50
2023-04-03T05:20:13.187Z,1.30
2023-04-03T05:21:08.284Z,1.80
2023-04-03T05:22:03.442Z,1.50
2023-04-03T05:22:58.372Z,1.70
2023-04-03T05:23:54.826Z,1.20
2023-04-03T05:24:50.116Z,1.70
2023-04-03T05:25:45.186Z,1.30
2023-04-03T05:26:40.373Z,1.60
2023-04-03T05:27:35.244Z,1.50
2023-04-03T05:28:30.369Z,1.40
2023-04-03T05:29:25.384Z,1.20
2023-04-03T05:30:20.424Z,1.30
2023-04-03T05:31:15.482Z,1.30
2023-04-03T05:32:10.603Z,1.60
2023-04-03T05:33:05.693Z,1.40
2023-04-03T05:34:00.929Z,1.30
2023-04-03T05:34:56.608Z,1.60
2023-04-03T05:35:52.060Z,1.40
2023-04-03T05:36:47.525Z,1.20
2023-04-03T05:37:43.197Z,1.50
2023-04-03T05:38:38.514Z,1.40
2023-04-03T05:39:34.422Z,1.10
2023-04-03T05:40:29.628Z,1.40
2023-04-03T05:41:25.133Z,1.30
2023-04-03T05:42:20.879Z,1.60
2023-04-03T05:43:16.345Z,1.80
2023-04-03T05:44:11.770Z,2.30
2023-04-03T05:45:07.915Z,1.70
2023-04-03T05:46:03.411Z,1.70
2023-04-03T05:46:59.355Z,1.60
2023-04-03T05:47:54.638Z,2.00
2023-04-03T05:48:50.179Z,1.60
2023-04-03T05:49:45.717Z,1.40
2023-04-03T05:50:41.128Z,1.30
2023-04-03T05:51:37.035Z,2.10
2023-04-03T05:52:32.148Z,2.10
2023-04-03T05:53:27.678Z,1.60
2023-04-03T05:54:23.409Z,2.20
2023-04-03T05:55:18.714Z,1.60
2023-04-03T05:56:14.009Z,1.50
2023-04-03T05:57:10.562Z,1.80
2023-04-03T05:58:05.708Z,1.50
2023-04-03T05:59:01.398Z,1.40
2023-04-03T05:59:56.789Z,1.50
2023-04-03T06:00:52.084Z,1.90
2023-04-03T06:01:47.915Z,1.70
2023-04-03T06:02:43.330Z,1.40
2023-04-03T06:03:40.260Z,1.70
2023-04-03T06:04:34.430Z,1.70
2023-04-03T06:05:29.818Z,2.10
2023-04-03T06:06:25.031Z,1.60
2023-04-03T06:07:19.979Z,1.50
2023-04-03T06:08:15.047Z,1.90
2023-04-03T06:09:10.117Z,1.50
2023-04-03T06:10:05.181Z,1.70
2023-04-03T06:11:00.253Z,1.40
2023-04-03T06:11:55.440Z,1.70
2023-04-03T06:12:50.380Z,1.60
2023-04-03T06:13:45.408Z,1.60
2023-04-03T06:14:40.492Z,1.70
2023-04-03T06:15:35.546Z,1.50
2023-04-03T06:16:30.900Z,1.60
2023-04-03T06:17:25.767Z,1.60
2023-04-03T06:18:20.815Z,1.60
2023-04-03T06:19:16.818Z,2.10
2023-04-03T06:20:12.419Z,1.40
2023-04-03T06:21:08.042Z,1.60
2023-04-03T06:22:04.091Z,1.80
2023-04-03T06:22:59.496Z,1.70
2023-04-03T06:23:55.384Z,1.50
2023-04-03T06:24:50.566Z,1.60
2023-04-03T06:25:45.934Z,1.80
2023-04-03T06:26:41.825Z,1.60
2023-04-03T06:27:37.055Z,1.50
2023-04-03T06:28:32.844Z,1.50
2023-04-03T06:29:28.180Z,1.70
2023-04-03T06:30:23.612Z,2.20
2023-04-03T06:31:19.545Z,2.10
2023-04-03T06:32:14.741Z,1.80
2023-04-03T06:33:10.387Z,2.10
2023-04-03T06:34:08.535Z,2.00
2023-04-03T06:35:01.930Z,1.70
2023-04-03T06:35:57.540Z,1.60
2023-04-03T06:36:52.610Z,1.80
2023-04-03T06:37:48.760Z,1.80
2023-04-03T06:38:44.070Z,1.90
2023-04-03T06:39:39.384Z,1.80
2023-04-03T06:40:34.771Z,1.70
2023-04-03T06:41:31.094Z,1.50
2023-04-03T06:42:26.435Z,1.90
2023-04-03T06:43:23.993Z,2.20
2023-04-03T06:44:20.641Z,1.70
2023-04-03T06:45:15.947Z,1.90
2023-04-03T06:46:11.676Z,2.00
2023-04-03T06:47:06.828Z,2.20
2023-04-03T06:48:01.928Z,2.20
2023-04-03T06:48:56.858Z,1.80
2023-04-03T06:49:51.913Z,1.90
2023-04-03T06:50:47.110Z,1.60
2023-04-03T06:51:42.079Z,2.30
2023-04-03T06:52:37.121Z,1.90
2023-04-03T06:53:32.229Z,1.50
2023-04-03T06:54:27.242Z,2.20
2023-04-03T06:55:22.282Z,2.10
2023-04-03T06:56:17.278Z,2.00
2023-04-03T06:57:12.457Z,2.00
2023-04-03T06:58:07.529Z,2.30
2023-04-03T06:59:02.687Z,2.40
2023-04-03T06:59:57.542Z,2.20
2023-04-03T07:00:52.772Z,2.10
2023-04-03T07:01:47.754Z,1.50
2023-04-03T07:02:42.862Z,1.40
2023-04-03T07:03:37.829Z,1.60
2023-04-03T07:04:33.003Z,2.00
2023-04-03T07:05:28.088Z,2.00
2023-04-03T07:06:23.048Z,2.20
2023-04-03T07:07:20.643Z,1.80
2023-04-03T07:08:15.740Z,1.80
2023-04-03T07:09:10.813Z,2.00
2023-04-03T07:10:06.055Z,1.90
2023-04-03T07:11:00.932Z,1.80
2023-04-03T07:11:56.160Z,1.70
2023-04-03T07:12:51.179Z,2.00
2023-04-03T07:13:46.275Z,1.80
2023-04-03T07:14:41.308Z,1.80
2023-04-03T07:15:36.619Z,2.40
2023-04-03T07:16:31.849Z,1.60
2023-04-03T07:17:27.285Z,1.60
2023-04-03T07:18:23.135Z,2.60
2023-04-03T07:19:18.528Z,1.60
2023-04-03T07:20:13.847Z,1.70
2023-04-03T07:21:09.629Z,1.40
2023-04-03T07:22:04.941Z,2.10
2023-04-03T07:23:02.701Z,1.80
2023-04-03T07:23:56.121Z,1.60
2023-04-03T07:24:51.684Z,1.60
2023-04-03T07:25:46.893Z,1.80
2023-04-03T07:26:41.844Z,2.00
2023-04-03T07:27:37.036Z,1.40
2023-04-03T07:28:32.099Z,1.70
2023-04-03T07:29:27.125Z,2.00
2023-04-03T07:30:22.250Z,2.10
2023-04-03T07:31:17.369Z,1.40
2023-04-03T07:32:12.451Z,1.70
2023-04-03T07:33:07.491Z,2.10
2023-04-03T07:34:02.543Z,1.40
2023-04-03T07:34:57.617Z,1.40
2023-04-03T07:35:52.745Z,1.80
2023-04-03T07:36:47.774Z,1.70
2023-04-03T07:37:42.853Z,2.00
2023-04-03T07:38:40.174Z,1.60
2023-04-03T07:39:35.273Z,1.90
2023-04-03T07:40:30.260Z,1.90
2023-04-03T07:41:25.394Z,1.60
2023-04-03T07:42:20.425Z,1.70
2023-04-03T07:43:15.485Z,1.60
2023-04-03T07:44:10.543Z,1.80
2023-04-03T07:45:05.692Z,2.10
2023-04-03T07:46:00.822Z,2.00
2023-04-03T07:46:55.968Z,1.80
2023-04-03T07:47:51.243Z,1.70
2023-04-03T07:48:46.649Z,1.90
2023-04-03T07:49:42.277Z,2.20
2023-04-03T07:50:37.969Z,2.00
2023-04-03T07:51:33.263Z,1.80
2023-04-03T07:52:29.154Z,2.00
2023-04-03T07:53:24.482Z,2.40
2023-04-03T07:54:20.392Z,1.90
2023-04-03T07:55:15.926Z,1.90
2023-04-03T07:56:11.168Z,1.90
2023-04-03T07:57:07.157Z,1.80
2023-04-03T07:58:02.531Z,1.60
2023-04-03T07:58:57.910Z,1.70
2023-04-03T07:59:54.332Z,1.70
2023-04-03T08:00:49.598Z,1.90
2023-04-03T08:01:45.568Z,1.90
2023-04-03T08:02:41.013Z,1.60
2023-04-03T08:03:36.456Z,1.60
2023-04-03T08:04:32.086Z,1.50
2023-04-03T08:05:27.652Z,1.60
2023-04-03T08:06:33.054Z,1.70
2023-04-03T08:07:19.482Z,1.80
2023-04-03T08:08:14.160Z,2.20
2023-04-03T08:09:09.701Z,1.60
2023-04-03T08:10:04.941Z,1.90
2023-04-03T08:11:01.592Z,1.90
2023-04-03T08:11:57.123Z,2.00
2023-04-03T08:12:52.825Z,1.60
2023-04-03T08:13:48.200Z,1.80
2023-04-03T08:14:43.768Z,1.50
2023-04-03T08:15:39.785Z,1.40
2023-04-03T08:16:35.104Z,1.80
2023-04-03T08:17:30.816Z,1.50
2023-04-03T08:18:26.197Z,1.60
2023-04-03T08:19:26.681Z,1.60
2023-04-03T08:20:18.540Z,1.70
2023-04-03T08:21:13.004Z,1.70
2023-04-03T08:22:08.555Z,2.00
2023-04-03T08:23:03.963Z,1.40
2023-04-03T08:23:59.396Z,2.10
2023-04-03T08:24:59.345Z,1.90
2023-04-03T08:25:53.134Z,1.70
2023-04-03T08:26:48.661Z,1.70
2023-04-03T08:27:43.690Z,1.50
2023-04-03T08:28:38.779Z,2.00
2023-04-03T08:29:34.720Z,1.70
2023-04-03T08:30:28.781Z,1.70
2023-04-03T08:31:24.012Z,2.00
2023-04-03T08:32:18.979Z,1.80
2023-04-03T08:33:14.080Z,1.90
2023-04-03T08:34:09.111Z,1.70
2023-04-03T08:35:04.196Z,1.50
2023-04-03T08:35:59.193Z,1.80
2023-04-03T08:36:54.278Z,1.40
2023-04-03T08:37:49.449Z,1.80
2023-04-03T08:38:44.460Z,1.70
2023-04-03T08:39:39.639Z,1.50
2023-04-03T08:40:37.531Z,1.40
2023-04-03T08:41:32.561Z,1.80
2023-04-03T08:42:27.590Z,1.80
2023-04-03T08:43:22.653Z,2.10
2023-04-03T08:44:17.680Z,1.50
2023-04-03T08:45:12.745Z,1.60
2023-04-03T08:46:07.901Z,1.80
2023-04-03T08:47:02.935Z,1.60
2023-04-03T08:47:57.806Z,1.80
2023-04-03T08:48:53.089Z,1.90
2023-04-03T08:49:49.535Z,1.80
2023-04-03T08:50:45.005Z,1.70
2023-04-03T08:51:40.712Z,1.90
2023-04-03T08:52:36.152Z,1.60
2023-04-03T08:53:31.603Z,1.80
2023-04-03T08:54:27.646Z,1.80
2023-04-03T08:55:23.109Z,1.80
2023-04-03T08:56:18.857Z,1.70
2023-04-03T08:57:14.292Z,1.90
2023-04-03T08:58:09.861Z,2.00
2023-04-03T08:59:05.909Z,1.80
2023-04-03T09:00:01.412Z,2.20
2023-04-03T09:00:56.681Z,1.80
2023-04-03T09:01:53.184Z,1.80
2023-04-03T09:02:48.660Z,1.80
2023-04-03T09:03:44.480Z,1.90
2023-04-03T09:04:39.921Z,1.80
2023-04-03T09:05:35.458Z,2.00
2023-04-03T09:06:31.108Z,1.80
2023-04-03T09:07:26.814Z,2.10
2023-04-03T09:08:22.536Z,1.80
2023-04-03T09:09:18.031Z,2.20
2023-04-03T09:10:13.301Z,1.70
2023-04-03T09:11:09.045Z,2.10
2023-04-03T09:12:04.477Z,2.10
2023-04-03T09:12:59.906Z,2.00
2023-04-03T09:13:56.191Z,2.30
2023-04-03T09:14:51.632Z,2.20
2023-04-03T09:15:47.512Z,1.70
2023-04-03T09:16:42.932Z,1.80
2023-04-03T09:17:38.335Z,1.80
2023-04-03T09:18:34.060Z,1.70
2023-04-03T09:19:29.537Z,2.00
2023-04-03T09:20:25.396Z,2.10
2023-04-03T09:21:20.857Z,2.20
2023-04-03T09:22:16.152Z,2.10
2023-04-03T09:23:11.875Z,1.60
2023-04-03T09:24:07.409Z,1.80
2023-04-03T09:25:02.918Z,1.90
2023-04-03T09:25:59.203Z,1.80
2023-04-03T09:26:54.609Z,2.30
2023-04-03T09:27:50.066Z,1.90
2023-04-03T09:28:50.428Z,2.40
2023-04-03T09:29:41.321Z,1.70
2023-04-03T09:30:35.115Z,1.80
2023-04-03T09:31:30.177Z,2.20
2023-04-03T09:32:25.967Z,1.60
2023-04-03T09:33:21.363Z,1.80
2023-04-03T09:34:16.767Z,2.10
2023-04-03T09:35:20.636Z,2.00
2023-04-03T09:36:09.545Z,2.00
2023-04-03T09:37:04.333Z,1.70
2023-04-03T09:37:59.729Z,1.90
2023-04-03T09:38:55.295Z,1.80
2023-04-03T09:39:51.024Z,2.00
2023-04-03T09:40:46.464Z,1.80
2023-04-03T09:41:42.054Z,1.80
2023-04-03T09:42:37.547Z,1.80
2023-04-03T09:43:32.950Z,1.70
2023-04-03T09:44:28.564Z,1.60
2023-04-03T09:45:23.716Z,2.20
2023-04-03T09:46:20.953Z,2.10
2023-04-03T09:47:15.591Z,1.80
2023-04-03T09:48:16.124Z,1.90
2023-04-03T09:49:09.898Z,1.70
2023-04-03T09:50:02.529Z,2.10
2023-04-03T09:50:58.027Z,1.90
2023-04-03T09:51:53.530Z,2.10
2023-04-03T09:52:48.893Z,2.00
2023-04-03T09:53:44.828Z,1.60
2023-04-03T09:54:40.044Z,1.40
2023-04-03T09:55:35.475Z,1.70
2023-04-03T09:56:31.656Z,1.80
2023-04-03T09:57:27.229Z,1.90
2023-04-03T09:58:22.857Z,2.10
2023-04-03T09:59:18.392Z,1.70
2023-04-03T10:00:13.898Z,1.70
2023-04-03T10:01:09.732Z,2.20
2023-04-03T10:02:05.112Z,1.60
2023-04-03T10:03:00.918Z,1.50
2023-04-03T10:03:56.404Z,2.20
2023-04-03T10:05:06.307Z,2.00
2023-04-03T10:05:48.713Z,2.00
2023-04-03T10:06:43.320Z,1.60
2023-04-03T10:07:38.674Z,2.00
2023-04-03T10:08:35.008Z,1.90
2023-04-03T10:09:30.383Z,1.80
2023-04-03T10:10:26.477Z,2.20
2023-04-03T10:11:21.751Z,2.10
2023-04-03T10:12:17.310Z,1.80
2023-04-03T10:13:20.241Z,1.90
2023-04-03T10:14:09.640Z,1.90
2023-04-03T10:15:04.276Z,1.70
2023-04-03T10:15:59.697Z,1.90
2023-04-03T10:16:55.124Z,2.30
2023-04-03T10:17:51.160Z,1.90
2023-04-03T10:18:46.608Z,1.80
2023-04-03T10:19:42.245Z,1.80
2023-04-03T10:20:38.599Z,1.80
2023-04-03T10:21:34.009Z,1.70
2023-04-03T10:22:29.759Z,1.80
2023-04-03T10:23:25.164Z,1.80
2023-04-03T10:24:20.725Z,1.90
2023-04-03T10:25:16.241Z,1.70
2023-04-03T10:26:14.015Z,1.80
2023-04-03T10:27:07.547Z,2.00
2023-04-03T10:28:02.808Z,1.70
2023-04-03T10:28:58.319Z,2.10
2023-04-03T10:29:54.381Z,2.40
2023-04-03T10:30:49.603Z,1.90
2023-04-03T10:31:45.002Z,2.10
2023-04-03T10:32:41.677Z,2.10
2023-04-03T10:33:36.636Z,1.80
2023-04-03T10:34:32.208Z,2.10
2023-04-03T10:35:28.358Z,1.50
2023-04-03T10:36:23.763Z,1.90
2023-04-03T10:37:19.585Z,1.70
2023-04-03T10:38:15.038Z,1.80
2023-04-03T10:39:10.425Z,1.50
2023-04-03T10:40:06.179Z,2.10
2023-04-03T10:41:01.575Z,1.80
2023-04-03T10:42:05.776Z,1.50
2023-04-03T10:42:53.728Z,1.60
2023-04-03T10:43:48.617Z,1.40
2023-04-03T10:44:44.233Z,1.90
2023-04-03T10:45:39.863Z,1.50
2023-04-03T10:46:35.303Z,1.60
2023-04-03T10:47:32.037Z,1.30
2023-04-03T10:48:26.540Z,1.60
2023-04-03T10:49:21.899Z,2.10
2023-04-03T10:50:17.272Z,1.80
2023-04-03T10:51:12.871Z,1.60
2023-04-03T10:52:08.303Z,1.80
2023-04-03T10:53:07.660Z,1.60
2023-04-03T10:54:03.205Z,1.60
2023-04-03T10:54:58.521Z,1.40
2023-04-03T10:55:54.113Z,1.80
2023-04-03T10:56:57.908Z,1.50
2023-04-03T10:57:46.721Z,1.80
2023-04-03T10:58:41.182Z,1.60
2023-04-03T10:59:36.878Z,1.80
2023-04-03T11:00:32.428Z,1.60
2023-04-03T11:01:27.833Z,1.80
2023-04-03T11:02:23.623Z,1.90
2023-04-03T11:03:18.582Z,1.40
2023-04-03T11:04:13.794Z,1.60
2023-04-03T11:05:08.737Z,1.90
2023-04-03T11:06:03.741Z,1.60
2023-04-03T11:06:58.769Z,1.60
2023-04-03T11:07:56.272Z,1.70
2023-04-03T11:08:51.234Z,1.70
2023-04-03T11:09:46.436Z,1.70
2023-04-03T11:10:41.355Z,2.30
2023-04-03T11:11:36.397Z,2.50
2023-04-03T11:12:31.445Z,1.70
2023-04-03T11:13:26.466Z,2.20
2023-04-03T11:14:21.501Z,2.00
2023-04-03T11:15:16.750Z,2.40
2023-04-03T11:16:11.607Z,1.80
2023-04-03T11:17:07.796Z,2.10
2023-04-03T11:18:03.266Z,1.90
2023-04-03T11:18:59.087Z,2.20
2023-04-03T11:19:54.705Z,1.80
2023-04-03T11:20:50.201Z,2.30
2023-04-03T11:21:45.720Z,2.20
2023-04-03T11:22:41.193Z,2.70
2023-04-03T11:23:49.108Z,2.30
2023-04-03T11:24:33.326Z,2.40
2023-04-03T11:25:28.392Z,2.20
2023-04-03T11:26:23.732Z,2.30
2023-04-03T11:27:19.498Z,1.90
2023-04-03T11:28:14.942Z,1.60
2023-04-03T11:29:12.418Z,2.00
2023-04-03T11:30:06.110Z,2.30
2023-04-03T11:31:01.588Z,1.90
2023-04-03T11:31:57.128Z,1.60
2023-04-03T11:32:53.638Z,2.00
2023-04-03T11:33:49.107Z,2.50
2023-04-03T11:34:44.802Z,2.80
2023-04-03T11:35:40.729Z,2.10
2023-04-03T11:36:36.487Z,1.70
2023-04-03T11:37:31.696Z,2.50
2023-04-03T11:38:27.124Z,2.20
2023-04-03T11:39:22.922Z,2.50
2023-04-03T11:40:18.320Z,2.60
2023-04-03T11:41:13.720Z,2.90
2023-04-03T11:42:13.027Z,2.20
2023-04-03T11:43:04.930Z,1.90
2023-04-03T11:44:00.376Z,1.90
2023-04-03T11:44:57.151Z,1.60
2023-04-03T11:45:52.460Z,1.90
2023-04-03T11:46:48.232Z,2.00
2023-04-03T11:47:43.640Z,1.90
2023-04-03T11:48:39.094Z,2.20
2023-04-03T11:49:35.078Z,1.60
2023-04-03T11:50:30.649Z,2.00
2023-04-03T11:51:26.256Z,2.30
2023-04-03T11:52:21.719Z,1.80
2023-04-03T11:53:17.098Z,1.80
2023-04-03T11:54:13.116Z,1.50
2023-04-03T11:55:08.568Z,1.40
2023-04-03T11:56:04.034Z,1.60
2023-04-03T11:57:00.564Z,1.90
2023-04-03T11:57:55.911Z,1.70
2023-04-03T11:58:51.739Z,1.50
2023-04-03T11:59:47.150Z,1.40
2023-04-03T12:00:42.520Z,1.50
2023-04-03T12:01:38.417Z,1.70
2023-04-03T12:02:36.333Z,2.00
2023-04-03T12:03:31.044Z,1.50
2023-04-03T12:04:25.225Z,2.00
2023-04-03T12:05:21.512Z,1.80
2023-04-03T12:06:17.368Z,1.50
2023-04-03T12:07:12.805Z,1.90
2023-04-03T12:08:08.246Z,1.80
2023-04-03T12:09:04.525Z,2.20
2023-04-03T12:09:59.988Z,1.80
2023-04-03T12:10:55.568Z,1.80
2023-04-03T12:11:50.580Z,1.70
2023-04-03T12:12:45.618Z,1.60
2023-04-03T12:13:40.625Z,2.60
2023-04-03T12:14:35.705Z,2.00
2023-04-03T12:15:30.681Z,1.90
2023-04-03T12:16:25.907Z,1.70
2023-04-03T12:17:20.890Z,1.90